createdAt,value
2017-07-26T00:00:20.079Z,95.98
2017-07-26T00:00:46.197Z,95.79
2017-07-26T00:01:12.423Z,96.18
2017-07-26T00:01:38.651Z,95.89
2017-07-26T00:02:04.832Z,95.7
2017-07-26T00:02:31.007Z,95.89
2017-07-26T00:02:57.207Z,95.79
2017-07-26T00:03:23.373Z,95.6
2017-07-26T00:03:49.517Z,95.41
2017-07-26T00:04:15.685Z,95.6
2017-07-26T00:04:41.883Z,95.7
2017-07-26T00:05:08.067Z,95.7
2017-07-26T00:05:34.218Z,95.79
2017-07-26T00:06:00.410Z,95.7
2017-07-26T00:06:26.639Z,95.6
2017-07-26T00:06:52.821Z,95.79
2017-07-26T00:07:18.997Z,96.18
2017-07-26T00:07:45.180Z,96.08
2017-07-26T00:08:11.417Z,96.37
2017-07-26T00:08:37.599Z,95.79
2017-07-26T00:09:03.742Z,95.98
2017-07-26T00:09:29.901Z,96.85
2017-07-26T00:09:56.043Z,96.66
2017-07-26T00:10:22.269Z,96.94
2017-07-26T00:10:48.626Z,96.75
2017-07-26T00:11:14.767Z,96.66
2017-07-26T00:11:40.915Z,96.47
2017-07-26T00:12:07.142Z,96.56
2017-07-26T00:12:33.327Z,96.85
2017-07-26T00:12:59.443Z,96.27
2017-07-26T00:13:25.635Z,96.32
2017-07-26T00:13:51.778Z,96.75
2017-07-26T00:14:18.006Z,96.85
2017-07-26T00:14:44.192Z,96.85
2017-07-26T00:15:10.332Z,97.14
2017-07-26T00:15:36.531Z,97.19
2017-07-26T00:16:02.710Z,97.04
2017-07-26T00:16:28.856Z,96.7
2017-07-26T00:16:55.017Z,97.04
2017-07-26T00:17:21.138Z,97.04
2017-07-26T00:17:47.281Z,97.14
2017-07-26T00:18:13.440Z,96.85
2017-07-26T00:18:39.632Z,96.66
2017-07-26T00:19:05.751Z,96.56
2017-07-26T00:19:31.900Z,96.56
2017-07-26T00:19:58.101Z,96.75
2017-07-26T00:20:24.297Z,96.47
2017-07-26T00:20:50.457Z,96.56
2017-07-26T00:21:16.659Z,96.56
2017-07-26T00:21:42.810Z,96.94
2017-07-26T00:22:08.937Z,96.85
2017-07-26T00:22:35.072Z,96.66
2017-07-26T00:23:01.197Z,96.08
2017-07-26T00:23:27.420Z,95.98
2017-07-26T00:23:53.535Z,96.37
2017-07-26T00:24:19.687Z,95.89
2017-07-26T00:24:45.870Z,96.94
2017-07-26T00:25:12.062Z,96.56
2017-07-26T00:25:38.253Z,96.75
2017-07-26T00:26:04.366Z,96.66
2017-07-26T00:26:30.546Z,96.66
2017-07-26T00:26:56.705Z,96.66
2017-07-26T00:27:22.852Z,96.94
2017-07-26T00:27:49.006Z,96.66
2017-07-26T00:28:15.166Z,96.85
2017-07-26T00:28:41.339Z,96.66
2017-07-26T00:29:07.482Z,96.75
2017-07-26T00:29:33.644Z,95.89
2017-07-26T00:29:59.827Z,95.89
2017-07-26T00:30:25.981Z,96.27
2017-07-26T00:30:52.189Z,96.08
2017-07-26T00:31:18.369Z,96.18
2017-07-26T00:31:44.501Z,96.18
2017-07-26T00:32:10.616Z,96.27
2017-07-26T00:32:36.792Z,95.89
2017-07-26T00:33:03.050Z,96.18
2017-07-26T00:33:29.199Z,96.85
2017-07-26T00:33:55.312Z,97.04
2017-07-26T00:34:21.504Z,96.56
2017-07-26T00:34:47.693Z,96.18
2017-07-26T00:35:13.808Z,95.98
2017-07-26T00:35:39.967Z,96.08
2017-07-26T00:36:06.168Z,96.18
2017-07-26T00:36:32.336Z,96.18
2017-07-26T00:36:58.520Z,96.08
2017-07-26T00:37:24.724Z,96.94
2017-07-26T00:37:50.852Z,96.56
2017-07-26T00:38:17.110Z,96.75
2017-07-26T00:38:43.280Z,96.56
2017-07-26T00:39:09.441Z,96.37
2017-07-26T00:39:35.635Z,96.66
2017-07-26T00:40:01.749Z,96.56
2017-07-26T00:40:27.901Z,96.75
2017-07-26T00:40:54.030Z,96.75
2017-07-26T00:41:20.148Z,96.85
2017-07-26T00:41:46.342Z,96.56
2017-07-26T00:42:12.454Z,96.75
2017-07-26T00:42:38.608Z,96.37
2017-07-26T00:43:04.772Z,96.56
2017-07-26T00:43:30.908Z,96.27
2017-07-26T00:43:57.034Z,96.27
2017-07-26T00:44:23.223Z,96.85
2017-07-26T00:44:49.401Z,96.75
2017-07-26T00:45:15.576Z,96.66
2017-07-26T00:45:41.739Z,96.56
2017-07-26T00:46:07.914Z,96.66
2017-07-26T00:46:34.087Z,96.85
2017-07-26T00:47:00.286Z,96.18
2017-07-26T00:47:26.405Z,95.79
2017-07-26T00:47:52.545Z,95.98
2017-07-26T00:48:18.737Z,96.18
2017-07-26T00:48:44.895Z,96.08
2017-07-26T00:49:11.068Z,96.18
2017-07-26T00:49:37.254Z,96.94
2017-07-26T00:50:03.449Z,96.18
2017-07-26T00:50:29.557Z,96.08
2017-07-26T00:50:55.768Z,96.08
2017-07-26T00:51:21.962Z,95.98
2017-07-26T00:51:48.142Z,95.79
2017-07-26T00:52:14.341Z,96.37
2017-07-26T00:52:40.560Z,96.37
2017-07-26T00:53:06.713Z,96.37
2017-07-26T00:53:32.843Z,96.27
2017-07-26T00:53:59.007Z,96.08
2017-07-26T00:54:25.158Z,95.89
2017-07-26T00:54:51.290Z,96.37
2017-07-26T00:55:17.493Z,96.08
2017-07-26T00:55:43.665Z,96.27
2017-07-26T00:56:09.827Z,95.98
2017-07-26T00:56:35.947Z,95.79
2017-07-26T00:57:02.150Z,95.89
2017-07-26T00:57:28.347Z,95.98
2017-07-26T00:57:54.467Z,95.6
2017-07-26T00:58:20.596Z,95.6
2017-07-26T00:58:46.773Z,95.6
2017-07-26T00:59:12.895Z,95.89
2017-07-26T00:59:39.093Z,95.79
2017-07-26T01:00:05.337Z,95.7
2017-07-26T01:00:31.511Z,95.7
2017-07-26T01:00:57.645Z,95.79
2017-07-26T01:01:23.824Z,95.98
2017-07-26T01:01:49.994Z,95.98
2017-07-26T01:02:16.190Z,96.18
2017-07-26T01:02:42.379Z,96.18
2017-07-26T01:03:08.519Z,95.7
2017-07-26T01:03:34.674Z,95.41
2017-07-26T01:04:00.820Z,95.41
2017-07-26T01:04:27.013Z,95.98
2017-07-26T01:04:53.134Z,95.41
2017-07-26T01:05:19.273Z,95.7
2017-07-26T01:05:45.402Z,95.41
2017-07-26T01:06:11.524Z,95.89
2017-07-26T01:06:37.670Z,95.6
2017-07-26T01:07:03.826Z,95.7
2017-07-26T01:07:30.022Z,95.6
2017-07-26T01:07:56.222Z,95.41
2017-07-26T01:08:22.377Z,95.7
2017-07-26T01:08:48.575Z,95.6
2017-07-26T01:09:14.748Z,95.7
2017-07-26T01:09:40.904Z,95.7
2017-07-26T01:10:07.076Z,95.41
2017-07-26T01:10:33.226Z,95.5
2017-07-26T01:10:59.393Z,95.41
2017-07-26T01:11:25.599Z,95.41
2017-07-26T01:11:51.774Z,95.6
2017-07-26T01:12:17.967Z,95.12
2017-07-26T01:12:44.084Z,95.5
2017-07-26T01:13:10.233Z,95.12
2017-07-26T01:13:36.420Z,95.21
2017-07-26T01:14:02.573Z,95.31
2017-07-26T01:14:28.690Z,95.12
2017-07-26T01:14:54.876Z,95.31
2017-07-26T01:15:21.061Z,95.31
2017-07-26T01:15:47.192Z,95.5
2017-07-26T01:16:13.334Z,95.5
2017-07-26T01:16:39.452Z,95.03
2017-07-26T01:17:05.585Z,94.69
2017-07-26T01:17:31.705Z,94.83
2017-07-26T01:17:57.902Z,94.83
2017-07-26T01:18:24.067Z,94.45
2017-07-26T01:18:50.244Z,94.4
2017-07-26T01:19:16.422Z,94.98
2017-07-26T01:19:42.581Z,94.74
2017-07-26T01:20:08.708Z,94.69
2017-07-26T01:20:34.860Z,94.49
2017-07-26T01:21:01.014Z,94.93
2017-07-26T01:21:27.213Z,94.59
2017-07-26T01:21:53.380Z,94.59
2017-07-26T01:22:19.535Z,94.49
2017-07-26T01:22:45.710Z,94.78
2017-07-26T01:23:11.966Z,94.35
2017-07-26T01:23:38.120Z,94.49
2017-07-26T01:24:04.259Z,94.4
2017-07-26T01:24:30.417Z,94.54
2017-07-26T01:24:56.578Z,94.31
2017-07-26T01:25:22.744Z,94.31
2017-07-26T01:25:48.897Z,93.82
2017-07-26T01:26:15.069Z,94.26
2017-07-26T01:26:41.235Z,94.01
2017-07-26T01:27:07.416Z,94.11
2017-07-26T01:27:33.557Z,94.31
2017-07-26T01:27:59.736Z,93.82
2017-07-26T01:28:25.966Z,94.11
2017-07-26T01:28:52.108Z,94.11
2017-07-26T01:29:18.324Z,93.82
2017-07-26T01:29:44.489Z,94.31
2017-07-26T01:30:10.685Z,94.01
2017-07-26T01:30:36.862Z,94.31
2017-07-26T01:31:03.060Z,94.31
2017-07-26T01:31:29.239Z,94.69
2017-07-26T01:31:55.422Z,94.49
2017-07-26T01:32:21.545Z,94.69
2017-07-26T01:32:47.737Z,94.49
2017-07-26T01:33:13.877Z,94.21
2017-07-26T01:33:40.041Z,94.69
2017-07-26T01:34:06.231Z,94.59
2017-07-26T01:34:32.368Z,94.11
2017-07-26T01:34:58.614Z,94.31
2017-07-26T01:35:24.775Z,94.01
2017-07-26T01:35:50.942Z,94.21
2017-07-26T01:36:17.155Z,94.49
2017-07-26T01:36:43.313Z,94.49
2017-07-26T01:37:09.428Z,94.59
2017-07-26T01:37:35.584Z,94.01
2017-07-26T01:38:01.758Z,94.21
2017-07-26T01:38:27.947Z,94.59
2017-07-26T01:38:54.142Z,94.59
2017-07-26T01:39:20.285Z,94.4
2017-07-26T01:39:46.437Z,94.31
2017-07-26T01:40:12.566Z,94.69
2017-07-26T01:40:38.678Z,94.31
2017-07-26T01:41:04.831Z,94.4
2017-07-26T01:41:31.053Z,94.4
2017-07-26T01:41:57.206Z,94.01
2017-07-26T01:42:23.317Z,94.21
2017-07-26T01:42:49.506Z,94.11
2017-07-26T01:43:15.628Z,94.11
2017-07-26T01:43:41.789Z,94.21
2017-07-26T01:44:07.904Z,94.21
2017-07-26T01:44:34.141Z,94.01
2017-07-26T01:45:00.302Z,94.11
2017-07-26T01:45:26.420Z,94.11
2017-07-26T01:45:52.536Z,94.31
2017-07-26T01:46:18.764Z,94.4
2017-07-26T01:46:44.883Z,94.11
2017-07-26T01:47:11.023Z,94.11
2017-07-26T01:47:37.156Z,94.11
2017-07-26T01:48:03.366Z,94.01
2017-07-26T01:48:29.546Z,94.31
2017-07-26T01:48:55.723Z,93.82
2017-07-26T01:49:21.928Z,94.69
2017-07-26T01:49:48.121Z,94.49
2017-07-26T01:50:14.309Z,94.21
2017-07-26T01:50:40.454Z,94.01
2017-07-26T01:51:06.660Z,94.21
2017-07-26T01:51:32.766Z,94.31
2017-07-26T01:51:58.939Z,94.31
2017-07-26T01:52:25.100Z,94.69
2017-07-26T01:52:51.295Z,93.82
2017-07-26T01:53:17.525Z,94.21
2017-07-26T01:53:43.649Z,93.82
2017-07-26T01:54:09.798Z,94.78
2017-07-26T01:54:35.962Z,94.78
2017-07-26T01:55:02.149Z,94.31
2017-07-26T01:55:28.296Z,94.11
2017-07-26T01:55:54.457Z,94.4
2017-07-26T01:56:20.622Z,94.49
2017-07-26T01:56:46.824Z,94.59
2017-07-26T01:57:12.949Z,94.11
2017-07-26T01:57:39.111Z,94.4
2017-07-26T01:58:05.313Z,94.59
2017-07-26T01:58:31.430Z,94.11
2017-07-26T01:58:57.593Z,94.21
2017-07-26T01:59:23.775Z,94.21
2017-07-26T01:59:49.901Z,94.01
2017-07-26T02:00:16.167Z,94.21
2017-07-26T02:00:42.288Z,94.11
2017-07-26T02:01:08.483Z,94.01
2017-07-26T02:01:34.656Z,94.31
2017-07-26T02:02:00.810Z,94.4
2017-07-26T02:02:27.005Z,94.49
2017-07-26T02:02:53.183Z,94.21
2017-07-26T02:03:19.329Z,94.4
2017-07-26T02:03:45.462Z,94.88
2017-07-26T02:04:11.640Z,94.4
2017-07-26T02:04:37.815Z,94.78
2017-07-26T02:05:03.981Z,94.59
2017-07-26T02:05:30.159Z,94.49
2017-07-26T02:05:56.382Z,94.59
2017-07-26T02:06:22.584Z,94.69
2017-07-26T02:06:48.759Z,94.59
2017-07-26T02:07:14.958Z,94.59
2017-07-26T02:07:41.141Z,94.49
2017-07-26T02:08:07.279Z,94.49
2017-07-26T02:08:33.503Z,94.69
2017-07-26T02:08:59.658Z,94.4
2017-07-26T02:09:25.806Z,94.49
2017-07-26T02:09:51.986Z,94.49
2017-07-26T02:10:18.148Z,94.69
2017-07-26T02:10:44.324Z,94.88
2017-07-26T02:11:10.512Z,95.07
2017-07-26T02:11:36.683Z,95.55
2017-07-26T02:12:02.874Z,95.55
2017-07-26T02:12:29.028Z,95.36
2017-07-26T02:12:55.202Z,95.36
2017-07-26T02:13:21.364Z,95.65
2017-07-26T02:13:47.524Z,95.45
2017-07-26T02:14:13.667Z,95.26
2017-07-26T02:14:39.849Z,95.31
2017-07-26T02:15:06.050Z,95.17
2017-07-26T02:15:32.158Z,95.65
2017-07-26T02:15:58.281Z,95.45
2017-07-26T02:16:24.477Z,94.78
2017-07-26T02:16:50.592Z,94.98
2017-07-26T02:17:16.706Z,94.4
2017-07-26T02:17:42.869Z,95.07
2017-07-26T02:18:09.020Z,94.49
2017-07-26T02:18:35.196Z,94.59
2017-07-26T02:19:01.417Z,94.69
2017-07-26T02:19:27.538Z,95.07
2017-07-26T02:19:53.654Z,94.98
2017-07-26T02:20:19.844Z,94.88
2017-07-26T02:20:46.005Z,94.69
2017-07-26T02:21:12.143Z,95.36
2017-07-26T02:21:38.263Z,95.55
2017-07-26T02:22:04.410Z,95.36
2017-07-26T02:22:30.631Z,95.36
2017-07-26T02:22:56.821Z,95.26
2017-07-26T02:23:22.931Z,95.55
2017-07-26T02:23:49.124Z,95.36
2017-07-26T02:24:15.350Z,95.45
2017-07-26T02:24:41.522Z,95.75
2017-07-26T02:25:07.673Z,95.36
2017-07-26T02:25:33.868Z,95.31
2017-07-26T02:25:59.984Z,95.45
2017-07-26T02:26:26.168Z,95.36
2017-07-26T02:26:52.396Z,95.36
2017-07-26T02:27:18.571Z,95.75
2017-07-26T02:27:44.704Z,95.84
2017-07-26T02:28:10.872Z,95.45
2017-07-26T02:28:37.089Z,95.41
2017-07-26T02:29:03.250Z,95.65
2017-07-26T02:29:29.424Z,95.26
2017-07-26T02:29:55.574Z,95.36
2017-07-26T02:30:21.769Z,95.26
2017-07-26T02:30:47.981Z,95.45
2017-07-26T02:31:14.208Z,95.36
2017-07-26T02:31:40.340Z,95.45
2017-07-26T02:32:06.590Z,95.45
2017-07-26T02:32:32.788Z,95.55
2017-07-26T02:32:58.917Z,95.36
2017-07-26T02:33:25.122Z,95.45
2017-07-26T02:33:51.286Z,95.17
2017-07-26T02:34:17.464Z,95.26
2017-07-26T02:34:43.629Z,95.36
2017-07-26T02:35:09.831Z,95.26
2017-07-26T02:35:36.013Z,95.07
2017-07-26T02:36:02.128Z,95.26
2017-07-26T02:36:28.260Z,95.55
2017-07-26T02:36:54.480Z,95.45
2017-07-26T02:37:20.631Z,95.26
2017-07-26T02:37:46.845Z,95.26
2017-07-26T02:38:13.040Z,95.07
2017-07-26T02:38:39.211Z,94.69
2017-07-26T02:39:05.425Z,94.98
2017-07-26T02:39:31.582Z,94.49
2017-07-26T02:39:57.759Z,94.4
2017-07-26T02:40:23.911Z,94.49
2017-07-26T02:40:50.138Z,94.69
2017-07-26T02:41:16.342Z,94.49
2017-07-26T02:41:42.571Z,94.4
2017-07-26T02:42:08.769Z,95.07
2017-07-26T02:42:34.925Z,95.36
2017-07-26T02:43:01.062Z,95.36
2017-07-26T02:43:27.284Z,95.55
2017-07-26T02:43:53.499Z,95.26
2017-07-26T02:44:19.713Z,94.98
2017-07-26T02:44:45.861Z,95.26
2017-07-26T02:45:12.036Z,95.26
2017-07-26T02:45:38.197Z,95.17
2017-07-26T02:46:04.351Z,95.07
2017-07-26T02:46:30.526Z,94.98
2017-07-26T02:46:56.745Z,94.98
2017-07-26T02:47:22.966Z,95.07
2017-07-26T02:47:49.110Z,95.26
2017-07-26T02:48:15.299Z,95.07
2017-07-26T02:48:41.492Z,94.69
2017-07-26T02:49:07.658Z,94.59
2017-07-26T02:49:33.810Z,94.49
2017-07-26T02:50:00.022Z,94.78
2017-07-26T02:50:26.213Z,94.88
2017-07-26T02:50:52.436Z,94.59
2017-07-26T02:51:18.636Z,94.59
2017-07-26T02:51:44.795Z,94.31
2017-07-26T02:52:10.957Z,94.98
2017-07-26T02:52:37.158Z,95.45
2017-07-26T02:53:03.314Z,95.07
2017-07-26T02:53:29.501Z,95.07
2017-07-26T02:53:55.678Z,95.55
2017-07-26T02:54:21.860Z,95.45
2017-07-26T02:54:48.052Z,95.75
2017-07-26T02:55:14.226Z,95.75
2017-07-26T02:56:36.351Z,95.26
2017-07-26T02:57:02.512Z,95.55
2017-07-26T02:57:28.625Z,95.45
2017-07-26T02:57:54.755Z,95.55
2017-07-26T02:58:20.914Z,95.26
2017-07-26T02:58:47.058Z,95.45
2017-07-26T02:59:13.154Z,95.55
2017-07-26T02:59:39.312Z,95.65
2017-07-26T03:00:05.406Z,95.55
2017-07-26T03:00:31.546Z,95.45
2017-07-26T03:00:57.706Z,95.17
2017-07-26T03:01:23.827Z,94.98
2017-07-26T03:01:49.940Z,95.17
2017-07-26T03:02:16.125Z,95.26
2017-07-26T03:02:42.331Z,95.45
2017-07-26T03:03:08.470Z,95.7
2017-07-26T03:03:34.599Z,95.45
2017-07-26T03:04:00.763Z,95.65
2017-07-26T03:04:26.876Z,95.55
2017-07-26T03:04:53.004Z,95.17
2017-07-26T03:05:19.162Z,95.26
2017-07-26T03:05:45.304Z,95.45
2017-07-26T03:06:11.449Z,95.55
2017-07-26T03:06:37.582Z,95.55
2017-07-26T03:07:03.756Z,95.55
2017-07-26T03:07:29.916Z,95.55
2017-07-26T03:07:56.058Z,95.36
2017-07-26T03:08:22.200Z,95.36
2017-07-26T03:08:48.361Z,95.45
2017-07-26T03:09:14.499Z,95.65
2017-07-26T03:09:40.647Z,95.26
2017-07-26T03:10:06.811Z,95.45
2017-07-26T03:10:32.928Z,95.55
2017-07-26T03:10:59.042Z,95.26
2017-07-26T03:11:25.229Z,95.84
2017-07-26T03:11:51.379Z,95.75
2017-07-26T03:12:17.519Z,95.75
2017-07-26T03:12:43.653Z,95.65
2017-07-26T03:13:09.817Z,95.65
2017-07-26T03:13:35.924Z,95.84
2017-07-26T03:14:02.120Z,95.45
2017-07-26T03:14:28.235Z,95.17
2017-07-26T03:14:54.342Z,95.45
2017-07-26T03:15:20.521Z,95.55
2017-07-26T03:15:46.635Z,95.07
2017-07-26T03:16:12.793Z,95.36
2017-07-26T03:16:38.951Z,95.45
2017-07-26T03:17:05.114Z,95.26
2017-07-26T03:17:31.318Z,94.88
2017-07-26T03:17:57.477Z,94.59
2017-07-26T03:18:23.624Z,94.69
2017-07-26T03:18:49.773Z,94.69
2017-07-26T03:19:15.927Z,94.4
2017-07-26T03:19:42.044Z,94.69
2017-07-26T03:20:08.198Z,94.69
2017-07-26T03:20:34.312Z,94.59
2017-07-26T03:21:00.442Z,94.49
2017-07-26T03:21:26.575Z,94.4
2017-07-26T03:21:52.687Z,94.59
2017-07-26T03:22:18.837Z,94.69
2017-07-26T03:22:44.972Z,94.4
2017-07-26T03:23:11.107Z,94.88
2017-07-26T03:23:37.250Z,94.88
2017-07-26T03:24:03.374Z,94.4
2017-07-26T03:24:29.527Z,94.88
2017-07-26T03:24:55.659Z,94.78
2017-07-26T03:25:21.799Z,94.78
2017-07-26T03:25:47.972Z,94.4
2017-07-26T03:26:14.131Z,94.59
2017-07-26T03:26:40.269Z,94.4
2017-07-26T03:27:06.392Z,94.88
2017-07-26T03:27:32.553Z,94.78
2017-07-26T03:27:58.700Z,94.98
2017-07-26T03:28:24.836Z,94.4
2017-07-26T03:28:51.001Z,94.4
2017-07-26T03:29:17.155Z,94.49
2017-07-26T03:29:43.309Z,94.59
2017-07-26T03:30:09.448Z,94.4
2017-07-26T03:30:35.597Z,94.59
2017-07-26T03:31:01.822Z,94.88
2017-07-26T03:31:28.011Z,94.88
2017-07-26T03:31:54.127Z,94.78
2017-07-26T03:32:20.263Z,94.59
2017-07-26T03:32:46.360Z,94.69
2017-07-26T03:33:12.500Z,94.69
2017-07-26T03:33:38.606Z,94.11
2017-07-26T03:34:04.732Z,94.49
2017-07-26T03:34:30.897Z,94.59
2017-07-26T03:34:57.054Z,94.59
2017-07-26T03:35:23.191Z,94.69
2017-07-26T03:35:49.328Z,94.59
2017-07-26T03:36:15.449Z,94.69
2017-07-26T03:36:41.586Z,94.21
2017-07-26T03:37:07.690Z,94.49
2017-07-26T03:37:33.844Z,94.59
2017-07-26T03:37:59.959Z,94.21
2017-07-26T03:38:26.084Z,94.69
2017-07-26T03:38:52.216Z,94.78
2017-07-26T03:39:18.399Z,94.69
2017-07-26T03:39:44.550Z,94.69
2017-07-26T03:40:10.684Z,94.69
2017-07-26T03:40:36.772Z,94.69
2017-07-26T03:41:02.927Z,94.88
2017-07-26T03:41:29.041Z,94.88
2017-07-26T03:41:55.168Z,94.69
2017-07-26T03:42:21.328Z,94.4
2017-07-26T03:42:47.465Z,94.59
2017-07-26T03:43:13.636Z,94.4
2017-07-26T03:43:39.793Z,94.88
2017-07-26T03:44:05.907Z,94.49
2017-07-26T03:44:32.003Z,94.69
2017-07-26T03:44:58.165Z,94.59
2017-07-26T03:45:24.310Z,94.88
2017-07-26T03:45:50.428Z,94.98
2017-07-26T03:46:16.564Z,94.78
2017-07-26T03:46:42.660Z,94.59
2017-07-26T03:47:08.776Z,94.78
2017-07-26T03:47:34.939Z,94.49
2017-07-26T03:48:01.094Z,94.49
2017-07-26T03:48:27.183Z,94.78
2017-07-26T03:48:53.364Z,94.98
2017-07-26T03:49:19.497Z,94.59
2017-07-26T03:49:45.585Z,94.98
2017-07-26T03:50:11.785Z,94.4
2017-07-26T03:50:37.891Z,94.59
2017-07-26T03:51:04.006Z,94.49
2017-07-26T03:51:30.150Z,94.49
2017-07-26T03:51:56.281Z,94.4
2017-07-26T03:52:22.428Z,94.49
2017-07-26T03:52:48.564Z,94.49
2017-07-26T03:53:14.728Z,94.59
2017-07-26T03:53:40.856Z,94.78
2017-07-26T03:54:07.048Z,94.98
2017-07-26T03:54:33.240Z,94.59
2017-07-26T03:54:59.363Z,94.78
2017-07-26T03:55:25.497Z,94.88
2017-07-26T03:55:51.618Z,94.49
2017-07-26T03:56:17.734Z,94.88
2017-07-26T03:56:43.873Z,94.69
2017-07-26T03:57:10.024Z,94.59
2017-07-26T03:57:36.127Z,94.69
2017-07-26T03:58:02.290Z,94.4
2017-07-26T03:58:28.438Z,94.21
2017-07-26T03:58:54.572Z,94.49
2017-07-26T03:59:20.718Z,94.49
2017-07-26T03:59:46.832Z,94.69
2017-07-26T04:00:13.018Z,94.69
2017-07-26T04:00:39.116Z,94.49
2017-07-26T04:01:05.253Z,94.4
2017-07-26T04:01:31.383Z,94.31
2017-07-26T04:01:57.512Z,94.31
2017-07-26T04:02:23.671Z,94.01
2017-07-26T04:02:49.822Z,94.01
2017-07-26T04:03:15.964Z,94.01
2017-07-26T04:03:42.102Z,94.4
2017-07-26T04:04:08.248Z,94.31
2017-07-26T04:04:34.339Z,94.49
2017-07-26T04:05:00.471Z,94.21
2017-07-26T04:05:26.567Z,94.49
2017-07-26T04:05:52.709Z,94.31
2017-07-26T04:06:18.810Z,94.21
2017-07-26T04:06:44.943Z,94.59
2017-07-26T04:07:11.029Z,94.4
2017-07-26T04:07:37.182Z,94.4
2017-07-26T04:08:03.314Z,94.01
2017-07-26T04:08:29.430Z,94.01
2017-07-26T04:08:55.563Z,94.21
2017-07-26T04:09:21.674Z,94.4
2017-07-26T04:09:47.827Z,94.21
2017-07-26T04:10:13.963Z,94.31
2017-07-26T04:10:40.049Z,94.11
2017-07-26T04:11:06.198Z,94.21
2017-07-26T04:11:32.304Z,94.59
2017-07-26T04:11:58.446Z,94.4
2017-07-26T04:12:24.591Z,94.01
2017-07-26T04:12:50.723Z,94.31
2017-07-26T04:13:16.841Z,93.82
2017-07-26T04:13:43.004Z,94.11
2017-07-26T04:14:09.105Z,94.11
2017-07-26T04:14:35.203Z,94.59
2017-07-26T04:15:01.337Z,94.11
2017-07-26T04:15:27.479Z,94.11
2017-07-26T04:15:53.623Z,94.01
2017-07-26T04:16:19.757Z,94.21
2017-07-26T04:16:45.876Z,94.59
2017-07-26T04:17:12.039Z,94.01
2017-07-26T04:17:38.174Z,94.59
2017-07-26T04:18:04.349Z,94.49
2017-07-26T04:18:30.465Z,94.49
2017-07-26T04:18:56.651Z,94.69
2017-07-26T04:19:22.834Z,94.01
2017-07-26T04:19:48.961Z,94.88
2017-07-26T04:20:15.052Z,93.82
2017-07-26T04:20:41.193Z,94.21
2017-07-26T04:21:07.351Z,94.78
2017-07-26T04:21:33.501Z,94.69
2017-07-26T04:21:59.616Z,94.21
2017-07-26T04:22:25.743Z,94.21
2017-07-26T04:22:51.898Z,94.31
2017-07-26T04:23:18.041Z,94.11
2017-07-26T04:23:44.195Z,94.01
2017-07-26T04:24:10.353Z,94.21
2017-07-26T04:24:36.492Z,94.21
2017-07-26T04:25:02.638Z,94.01
2017-07-26T04:25:28.757Z,94.59
2017-07-26T04:25:54.916Z,94.4
2017-07-26T04:26:21.070Z,94.21
2017-07-26T04:26:47.212Z,94.59
2017-07-26T04:27:13.395Z,93.82
2017-07-26T04:27:39.580Z,93.63
2017-07-26T04:28:05.744Z,93.63
2017-07-26T04:28:31.844Z,93.63
2017-07-26T04:28:57.977Z,94.01
2017-07-26T04:29:24.118Z,94.69
2017-07-26T04:29:50.288Z,94.69
2017-07-26T04:30:16.423Z,93.63
2017-07-26T04:30:42.542Z,93.82
2017-07-26T04:31:08.657Z,93.73
2017-07-26T04:31:34.819Z,93.63
2017-07-26T04:32:00.993Z,93.92
2017-07-26T04:32:27.134Z,93.54
2017-07-26T04:32:53.297Z,93.54
2017-07-26T04:33:19.424Z,93.54
2017-07-26T04:33:45.513Z,93.82
2017-07-26T04:34:11.665Z,93.82
2017-07-26T04:34:37.824Z,93.73
2017-07-26T04:35:03.963Z,93.54
2017-07-26T04:35:30.072Z,94.01
2017-07-26T04:35:56.197Z,94.01
2017-07-26T04:36:22.315Z,93.73
2017-07-26T04:36:48.502Z,93.82
2017-07-26T04:37:14.644Z,93.73
2017-07-26T04:37:40.769Z,93.54
2017-07-26T04:38:06.930Z,93.63
2017-07-26T04:38:33.065Z,93.82
2017-07-26T04:38:59.164Z,93.82
2017-07-26T04:39:25.407Z,93.82
2017-07-26T04:39:51.546Z,94.01
2017-07-26T04:40:17.691Z,94.01
2017-07-26T04:40:43.825Z,93.82
2017-07-26T04:41:09.941Z,93.44
2017-07-26T04:41:36.081Z,93.44
2017-07-26T04:42:02.210Z,93.44
2017-07-26T04:42:28.408Z,93.34
2017-07-26T04:42:54.568Z,93.34
2017-07-26T04:43:20.729Z,93.34
2017-07-26T04:43:46.853Z,93.54
2017-07-26T04:44:13.016Z,93.63
2017-07-26T04:44:39.138Z,93.25
2017-07-26T04:45:05.248Z,93.34
2017-07-26T04:45:31.380Z,93.63
2017-07-26T04:45:57.582Z,93.05
2017-07-26T04:46:23.722Z,92.57
2017-07-26T04:46:49.888Z,93.05
2017-07-26T04:47:16.066Z,92.77
2017-07-26T04:47:42.194Z,93.44
2017-07-26T04:48:08.338Z,93.54
2017-07-26T04:48:34.478Z,93.25
2017-07-26T04:49:00.589Z,92.86
2017-07-26T04:49:26.714Z,92.67
2017-07-26T04:49:52.853Z,93.63
2017-07-26T04:50:19.010Z,93.44
2017-07-26T04:50:45.136Z,93.63
2017-07-26T04:51:11.228Z,93.54
2017-07-26T04:51:37.395Z,93.82
2017-07-26T04:52:03.546Z,93.73
2017-07-26T04:52:29.709Z,93.34
2017-07-26T04:52:55.861Z,93.05
2017-07-26T04:53:22.008Z,93.25
2017-07-26T04:53:48.193Z,93.34
2017-07-26T04:54:14.321Z,93.15
2017-07-26T04:54:40.462Z,93.25
2017-07-26T04:55:06.588Z,92.57
2017-07-26T04:55:32.692Z,92.57
2017-07-26T04:55:58.832Z,92.96
2017-07-26T04:56:24.932Z,92.77
2017-07-26T04:56:51.067Z,93.15
2017-07-26T04:57:17.209Z,92.81
2017-07-26T04:57:43.352Z,92.91
2017-07-26T04:58:09.489Z,92.33
2017-07-26T04:58:35.605Z,92.14
2017-07-26T04:59:01.763Z,92.52
2017-07-26T04:59:27.899Z,92.52
2017-07-26T04:59:54.024Z,92.52
2017-07-26T05:00:20.131Z,92.52
2017-07-26T05:00:46.220Z,92.33
2017-07-26T05:01:12.393Z,92.24
2017-07-26T05:01:38.552Z,92.52
2017-07-26T05:02:04.647Z,92.14
2017-07-26T05:02:30.788Z,92.14
2017-07-26T05:02:56.952Z,92.67
2017-07-26T05:03:23.076Z,92.86
2017-07-26T05:03:49.166Z,92.91
2017-07-26T05:04:15.329Z,93.01
2017-07-26T05:04:41.522Z,93.01
2017-07-26T05:05:07.632Z,92.91
2017-07-26T05:05:33.846Z,92.91
2017-07-26T05:05:59.970Z,92.77
2017-07-26T05:06:26.130Z,93.25
2017-07-26T05:06:52.252Z,93.54
2017-07-26T05:07:18.343Z,93.44
2017-07-26T05:07:44.476Z,92.86
2017-07-26T05:08:10.628Z,93.49
2017-07-26T05:08:36.718Z,93.34
2017-07-26T05:09:02.822Z,93.25
2017-07-26T05:09:29.009Z,93.15
2017-07-26T05:09:55.103Z,93.49
2017-07-26T05:10:21.256Z,93.34
2017-07-26T05:10:47.372Z,93.44
2017-07-26T05:11:13.531Z,93.54
2017-07-26T05:11:39.632Z,93.44
2017-07-26T05:12:05.770Z,93.54
2017-07-26T05:12:31.872Z,93.49
2017-07-26T05:12:58.055Z,93.39
2017-07-26T05:13:24.168Z,93.68
2017-07-26T05:13:50.320Z,93.54
2017-07-26T05:14:16.452Z,93.34
2017-07-26T05:14:42.617Z,93.82
2017-07-26T05:15:08.761Z,93.44
2017-07-26T05:15:34.925Z,93.58
2017-07-26T05:16:01.072Z,93.19
2017-07-26T05:16:27.190Z,93.29
2017-07-26T05:16:53.347Z,93.39
2017-07-26T05:17:19.471Z,93.25
2017-07-26T05:17:45.585Z,93.05
2017-07-26T05:18:11.779Z,93.05
2017-07-26T05:18:37.932Z,93.05
2017-07-26T05:19:04.072Z,93.19
2017-07-26T05:19:30.205Z,93.49
2017-07-26T05:19:56.369Z,93.29
2017-07-26T05:20:22.526Z,93.01
2017-07-26T05:20:48.650Z,93.1
2017-07-26T05:21:14.826Z,93.01
2017-07-26T05:21:40.956Z,93.01
2017-07-26T05:22:07.109Z,93.19
2017-07-26T05:22:33.225Z,93.1
2017-07-26T05:22:59.380Z,93.39
2017-07-26T05:23:25.539Z,93.39
2017-07-26T05:23:51.653Z,93.19
2017-07-26T05:24:17.755Z,93.01
2017-07-26T05:24:43.887Z,92.62
2017-07-26T05:25:10.054Z,93.1
2017-07-26T05:25:36.174Z,92.72
2017-07-26T05:26:02.305Z,92.91
2017-07-26T05:26:28.425Z,92.91
2017-07-26T05:26:54.529Z,92.91
2017-07-26T05:27:20.696Z,92.72
2017-07-26T05:27:46.817Z,92.91
2017-07-26T05:28:12.926Z,92.81
2017-07-26T05:28:39.044Z,92.81
2017-07-26T05:29:05.140Z,92.91
2017-07-26T05:29:31.300Z,92.91
2017-07-26T05:29:57.448Z,93.19
2017-07-26T05:30:23.611Z,92.33
2017-07-26T05:30:49.774Z,92.14
2017-07-26T05:31:15.950Z,92.24
2017-07-26T05:31:42.065Z,92.14
2017-07-26T05:32:08.226Z,92.14
2017-07-26T05:32:34.391Z,92.24
2017-07-26T05:33:00.498Z,92.52
2017-07-26T05:33:26.624Z,92.14
2017-07-26T05:33:52.731Z,92.52
2017-07-26T05:34:18.869Z,92.52
2017-07-26T05:34:45.023Z,92.14
2017-07-26T05:35:11.139Z,92.14
2017-07-26T05:35:37.296Z,92.33
2017-07-26T05:36:03.452Z,92.14
2017-07-26T05:36:29.590Z,92.33
2017-07-26T05:36:55.718Z,92.43
2017-07-26T05:37:21.907Z,92.33
2017-07-26T05:37:48.025Z,92.43
2017-07-26T05:38:14.173Z,92.14
2017-07-26T05:38:40.288Z,92.33